sensor_id;sensor_type;location;lat;lon;timestamp;pressure;altitude;pressure_sealevel;temperature;humidity
9139;BME280;4604;48.616;9.548;2024-02-16T00:01:41;96739.16;;;9.91;87.37
9139;BME280;4604;48.616;9.548;2024-02-16T00:04:07;96728.22;;;9.85;86.88
9139;BME280;4604;48.616;9.548;2024-02-16T00:06:34;96734.03;;;9.89;86.07
9139;BME280;4604;48.616;9.548;2024-02-16T00:09:01;96709.59;;;9.77;84.74
9139;BME280;4604;48.616;9.548;2024-02-16T00:11:30;96755.22;;;10.07;84.37
9139;BME280;4604;48.616;9.548;2024-02-16T00:13:57;96754.81;;;10.02;84.36
9139;BME280;4604;48.616;9.548;2024-02-16T00:16:23;96730.00;;;9.75;84.93
9139;BME280;4604;48.616;9.548;2024-02-16T00:18:51;96758.31;;;9.93;85.23
9139;BME280;4604;48.616;9.548;2024-02-16T00:21:17;96759.69;;;9.87;85.77
9139;BME280;4604;48.616;9.548;2024-02-16T00:23:45;96768.00;;;9.82;86.08
9139;BME280;4604;48.616;9.548;2024-02-16T00:26:12;96762.59;;;9.74;86.32
9139;BME280;4604;48.616;9.548;2024-02-16T00:28:40;96770.63;;;9.73;87.91
9139;BME280;4604;48.616;9.548;2024-02-16T00:31:07;96779.09;;;9.67;89.04
9139;BME280;4604;48.616;9.548;2024-02-16T00:33:34;96762.59;;;9.64;89.52
9139;BME280;4604;48.616;9.548;2024-02-16T00:36:01;96766.22;;;9.63;89.45
9139;BME280;4604;48.616;9.548;2024-02-16T00:38:27;96760.25;;;9.61;89.74
9139;BME280;4604;48.616;9.548;2024-02-16T00:40:54;96760.38;;;9.60;90.07
9139;BME280;4604;48.616;9.548;2024-02-16T00:43:20;96753.97;;;9.53;90.32
9139;BME280;4604;48.616;9.548;2024-02-16T00:45:48;96764.69;;;9.61;90.01
9139;BME280;4604;48.616;9.548;2024-02-16T00:48:15;96749.13;;;9.48;90.27
9139;BME280;4604;48.616;9.548;2024-02-16T00:50:42;96763.28;;;9.57;90.19
9139;BME280;4604;48.616;9.548;2024-02-16T00:53:09;96755.09;;;9.60;90.00
9139;BME280;4604;48.616;9.548;2024-02-16T00:55:36;96753.72;;;9.65;89.37
9139;BME280;4604;48.616;9.548;2024-02-16T00:58:03;96754.00;;;9.72;88.03
9139;BME280;4604;48.616;9.548;2024-02-16T01:00:30;96706.44;;;9.45;87.83
9139;BME280;4604;48.616;9.548;2024-02-16T01:02:58;96738.59;;;9.58;87.96
9139;BME280;4604;48.616;9.548;2024-02-16T01:05:25;96745.56;;;9.69;88.14
9139;BME280;4604;48.616;9.548;2024-02-16T01:07:51;96745.41;;;9.70;88.13
9139;BME280;4604;48.616;9.548;2024-02-16T01:10:20;96740.53;;;9.65;88.58
9139;BME280;4604;48.616;9.548;2024-02-16T01:12:46;96732.63;;;9.56;89.67
9139;BME280;4604;48.616;9.548;2024-02-16T01:15:13;96715.56;;;9.40;90.54
9139;BME280;4604;48.616;9.548;2024-02-16T01:17:40;96731.94;;;9.44;91.12
9139;BME280;4604;48.616;9.548;2024-02-16T01:20:09;96732.06;;;9.42;91.83
9139;BME280;4604;48.616;9.548;2024-02-16T01:22:38;96739.00;;;9.43;92.21
9139;BME280;4604;48.616;9.548;2024-02-16T01:25:05;96736.09;;;9.37;92.77
9139;BME280;4604;48.616;9.548;2024-02-16T01:27:32;96724.72;;;9.27;93.07
9139;BME280;4604;48.616;9.548;2024-02-16T01:29:59;96738.72;;;9.27;93.38
9139;BME280;4604;48.616;9.548;2024-02-16T01:32:26;96738.84;;;9.26;93.70
9139;BME280;4604;48.616;9.548;2024-02-16T01:34:53;96741.75;;;9.23;93.77
9139;BME280;4604;48.616;9.548;2024-02-16T01:37:21;96745.19;;;9.23;93.81
9139;BME280;4604;48.616;9.548;2024-02-16T01:39:47;96740.91;;;9.22;93.77
9139;BME280;4604;48.616;9.548;2024-02-16T01:42:14;96748.94;;;9.20;93.80
9139;BME280;4604;48.616;9.548;2024-02-16T01:44:40;96709.38;;;8.91;93.59
9139;BME280;4604;48.616;9.548;2024-02-16T01:47:08;96722.28;;;9.04;93.64
9139;BME280;4604;48.616;9.548;2024-02-16T01:49:34;96736.47;;;9.13;93.47
9139;BME280;4604;48.616;9.548;2024-02-16T01:52:02;96705.63;;;8.94;93.55
9139;BME280;4604;48.616;9.548;2024-02-16T01:54:30;96693.28;;;8.85;93.67
9139;BME280;4604;48.616;9.548;2024-02-16T01:56:58;96736.72;;;9.10;94.11
9139;BME280;4604;48.616;9.548;2024-02-16T01:59:26;96750.16;;;9.16;94.62
9139;BME280;4604;48.616;9.548;2024-02-16T02:01:53;96691.31;;;8.77;94.51
9139;BME280;4604;48.616;9.548;2024-02-16T02:04:20;96737.84;;;9.07;94.94
9139;BME280;4604;48.616;9.548;2024-02-16T02:06:47;96722.97;;;8.96;95.10
9139;BME280;4604;48.616;9.548;2024-02-16T02:09:13;96748.78;;;9.12;95.16
9139;BME280;4604;48.616;9.548;2024-02-16T02:11:41;96709.25;;;8.93;94.96
9139;BME280;4604;48.616;9.548;2024-02-16T02:14:08;96740.03;;;9.12;94.90
9139;BME280;4604;48.616;9.548;2024-02-16T02:16:35;96749.47;;;9.14;95.07
9139;BME280;4604;48.616;9.548;2024-02-16T02:19:02;96699.41;;;8.85;95.21
9139;BME280;4604;48.616;9.548;2024-02-16T02:21:29;96698.31;;;8.88;95.61
9139;BME280;4604;48.616;9.548;2024-02-16T02:23:57;96713.66;;;8.92;95.77
9139;BME280;4604;48.616;9.548;2024-02-16T02:26:24;96701.75;;;8.88;95.99
9139;BME280;4604;48.616;9.548;2024-02-16T02:28:51;96729.25;;;9.15;96.04
9139;BME280;4604;48.616;9.548;2024-02-16T02:31:18;96645.88;;;8.65;95.74
9139;BME280;4604;48.616;9.548;2024-02-16T02:33:45;96720.25;;;9.17;95.69
9139;BME280;4604;48.616;9.548;2024-02-16T02:36:13;96722.06;;;9.17;95.78
9139;BME280;4604;48.616;9.548;2024-02-16T02:38:39;96662.41;;;8.87;95.89
9139;BME280;4604;48.616;9.548;2024-02-16T02:41:07;96685.16;;;8.97;96.41
9139;BME280;4604;48.616;9.548;2024-02-16T02:43:34;96682.06;;;8.92;96.82
9139;BME280;4604;48.616;9.548;2024-02-16T02:46:01;96712.88;;;9.11;97.12
9139;BME280;4604;48.616;9.548;2024-02-16T02:48:27;96704.16;;;9.11;97.07
9139;BME280;4604;48.616;9.548;2024-02-16T02:50:54;96636.06;;;8.67;97.22
9139;BME280;4604;48.616;9.548;2024-02-16T02:53:21;96702.75;;;9.07;97.20
9139;BME280;4604;48.616;9.548;2024-02-16T02:55:48;96701.09;;;9.06;97.26
9139;BME280;4604;48.616;9.548;2024-02-16T02:58:17;96689.88;;;9.04;96.96
9139;BME280;4604;48.616;9.548;2024-02-16T03:00:45;96700.28;;;9.05;96.84
9139;BME280;4604;48.616;9.548;2024-02-16T03:03:12;96661.59;;;8.86;96.68
9139;BME280;4604;48.616;9.548;2024-02-16T03:05:41;96700.31;;;9.15;96.43
9139;BME280;4604;48.616;9.548;2024-02-16T03:08:08;96696.69;;;9.16;95.98
9139;BME280;4604;48.616;9.548;2024-02-16T03:10:36;96697.09;;;9.11;96.29
9139;BME280;4604;48.616;9.548;2024-02-16T03:13:04;96698.06;;;9.10;96.35
9139;BME280;4604;48.616;9.548;2024-02-16T03:15:33;96702.50;;;9.10;96.64
9139;BME280;4604;48.616;9.548;2024-02-16T03:18:01;96705.25;;;9.08;96.92
9139;BME280;4604;48.616;9.548;2024-02-16T03:20:27;96710.41;;;9.10;97.25
9139;BME280;4604;48.616;9.548;2024-02-16T03:22:56;96707.19;;;9.06;97.65
9139;BME280;4604;48.616;9.548;2024-02-16T03:25:23;96724.91;;;9.04;98.22
9139;BME280;4604;48.616;9.548;2024-02-16T03:27:51;96712.47;;;9.06;98.13
9139;BME280;4604;48.616;9.548;2024-02-16T03:30:19;96673.63;;;8.79;98.18
9139;BME280;4604;48.616;9.548;2024-02-16T03:32:50;96706.38;;;9.06;98.10
9139;BME280;4604;48.616;9.548;2024-02-16T03:35:17;96665.28;;;8.74;97.93
9139;BME280;4604;48.616;9.548;2024-02-16T03:37:44;96714.25;;;9.06;97.59
9139;BME280;4604;48.616;9.548;2024-02-16T03:40:11;96718.03;;;9.13;97.32
9139;BME280;4604;48.616;9.548;2024-02-16T03:42:39;96724.00;;;9.15;96.44
9139;BME280;4604;48.616;9.548;2024-02-16T03:45:07;96725.25;;;9.20;96.19
9139;BME280;4604;48.616;9.548;2024-02-16T03:47:34;96653.25;;;8.81;95.63
9139;BME280;4604;48.616;9.548;2024-02-16T03:50:03;96706.38;;;9.15;96.27
9139;BME280;4604;48.616;9.548;2024-02-16T03:52:29;96719.16;;;9.20;96.96
9139;BME280;4604;48.616;9.548;2024-02-16T03:54:57;96721.78;;;9.20;97.35
9139;BME280;4604;48.616;9.548;2024-02-16T03:57:23;96724.69;;;9.17;97.55
9139;BME280;4604;48.616;9.548;2024-02-16T03:59:49;96722.31;;;9.14;97.80
9139;BME280;4604;48.616;9.548;2024-02-16T04:02:16;96725.22;;;9.11;97.99
9139;BME280;4604;48.616;9.548;2024-02-16T04:04:42;96727.31;;;9.07;98.37
9139;BME280;4604;48.616;9.548;2024-02-16T04:07:11;96723.00;;;9.06;98.29
9139;BME280;4604;48.616;9.548;2024-02-16T04:09:38;96736.84;;;9.08;98.20
9139;BME280;4604;48.616;9.548;2024-02-16T04:12:08;96727.03;;;9.10;98.13
9139;BME280;4604;48.616;9.548;2024-02-16T04:14:36;96735.75;;;9.11;98.18
9139;BME280;4604;48.616;9.548;2024-02-16T04:17:03;96730.47;;;9.11;98.48
9139;BME280;4604;48.616;9.548;2024-02-16T04:19:30;96701.91;;;8.96;98.49
9139;BME280;4604;48.616;9.548;2024-02-16T04:21:57;96727.56;;;9.14;98.61
9139;BME280;4604;48.616;9.548;2024-02-16T04:24:25;96714.97;;;9.08;98.83
9139;BME280;4604;48.616;9.548;2024-02-16T04:26:52;96720.50;;;9.05;98.79
9139;BME280;4604;48.616;9.548;2024-02-16T04:29:19;96724.00;;;9.15;98.81
9139;BME280;4604;48.616;9.548;2024-02-16T04:31:45;96723.41;;;9.11;99.17
9139;BME280;4604;48.616;9.548;2024-02-16T04:34:13;96694.81;;;8.87;99.21
9139;BME280;4604;48.616;9.548;2024-02-16T04:36:40;96688.03;;;8.94;99.15
9139;BME280;4604;48.616;9.548;2024-02-16T04:39:07;96685.56;;;8.93;99.10
9139;BME280;4604;48.616;9.548;2024-02-16T04:41:36;96720.25;;;9.17;99.04
9139;BME280;4604;48.616;9.548;2024-02-16T04:44:03;96715.66;;;9.10;98.74
9139;BME280;4604;48.616;9.548;2024-02-16T04:46:30;96721.91;;;9.18;97.91
9139;BME280;4604;48.616;9.548;2024-02-16T04:48:57;96727.47;;;9.25;97.29
9139;BME280;4604;48.616;9.548;2024-02-16T04:51:23;96727.06;;;9.20;96.77
9139;BME280;4604;48.616;9.548;2024-02-16T04:53:50;96729.00;;;9.28;96.56
9139;BME280;4604;48.616;9.548;2024-02-16T04:56:16;96735.91;;;9.29;96.29
9139;BME280;4604;48.616;9.548;2024-02-16T04:58:45;96736.78;;;9.29;95.99
9139;BME280;4604;48.616;9.548;2024-02-16T05:01:13;96741.34;;;9.37;95.06
9139;BME280;4604;48.616;9.548;2024-02-16T05:03:39;96745.81;;;9.36;94.50
9139;BME280;4604;48.616;9.548;2024-02-16T05:06:06;96744.81;;;9.37;94.69
9139;BME280;4604;48.616;9.548;2024-02-16T05:08:33;96748.28;;;9.38;94.63
9139;BME280;4604;48.616;9.548;2024-02-16T05:11:00;96740.22;;;9.30;95.02
9139;BME280;4604;48.616;9.548;2024-02-16T05:13:27;96710.25;;;9.11;95.07
9139;BME280;4604;48.616;9.548;2024-02-16T05:15:57;96708.88;;;9.07;95.62
9139;BME280;4604;48.616;9.548;2024-02-16T05:18:24;96743.97;;;9.27;96.46
9139;BME280;4604;48.616;9.548;2024-02-16T05:20:51;96744.22;;;9.24;96.88
9139;BME280;4604;48.616;9.548;2024-02-16T05:23:17;96746.19;;;9.22;97.17
9139;BME280;4604;48.616;9.548;2024-02-16T05:25:44;96701.91;;;8.96;97.79
9139;BME280;4604;48.616;9.548;2024-02-16T05:28:11;96739.91;;;9.13;98.16
9139;BME280;4604;48.616;9.548;2024-02-16T05:30:38;96742.41;;;9.15;98.33
9139;BME280;4604;48.616;9.548;2024-02-16T05:33:06;96742.53;;;9.13;98.35
9139;BME280;4604;48.616;9.548;2024-02-16T05:35:33;96738.25;;;9.12;98.60
9139;BME280;4604;48.616;9.548;2024-02-16T05:38:00;96704.94;;;8.92;98.82
9139;BME280;4604;48.616;9.548;2024-02-16T05:40:32;96694.53;;;8.81;99.12
9139;BME280;4604;48.616;9.548;2024-02-16T05:43:10;96734.34;;;9.07;99.32
9139;BME280;4604;48.616;9.548;2024-02-16T05:45:37;96675.81;;;8.74;99.45
9139;BME280;4604;48.616;9.548;2024-02-16T05:48:08;96723.28;;;9.03;99.96
9139;BME280;4604;48.616;9.548;2024-02-16T05:50:35;96734.06;;;9.00;99.90
9139;BME280;4604;48.616;9.548;2024-02-16T05:53:04;96740.72;;;9.04;99.76
9139;BME280;4604;48.616;9.548;2024-02-16T05:55:31;96741.97;;;9.00;99.89
9139;BME280;4604;48.616;9.548;2024-02-16T05:57:58;96745.03;;;9.05;99.38
9139;BME280;4604;48.616;9.548;2024-02-16T06:00:25;96721.13;;;8.87;99.42
9139;BME280;4604;48.616;9.548;2024-02-16T06:02:52;96722.81;;;8.88;98.98
9139;BME280;4604;48.616;9.548;2024-02-16T06:05:20;96747.06;;;9.02;97.90
9139;BME280;4604;48.616;9.548;2024-02-16T06:07:47;96740.88;;;9.03;97.63
9139;BME280;4604;48.616;9.548;2024-02-16T06:10:14;96714.06;;;8.78;97.72
9139;BME280;4604;48.616;9.548;2024-02-16T06:12:41;96758.03;;;9.07;97.83
9139;BME280;4604;48.616;9.548;2024-02-16T06:15:08;96769.44;;;9.07;97.65
9139;BME280;4604;48.616;9.548;2024-02-16T06:17:38;96767.34;;;9.11;97.64
9139;BME280;4604;48.616;9.548;2024-02-16T06:20:08;96768.56;;;9.07;98.11
9139;BME280;4604;48.616;9.548;2024-02-16T06:22:38;96775.63;;;9.06;98.29
9139;BME280;4604;48.616;9.548;2024-02-16T06:25:05;96737.75;;;8.78;98.35
9139;BME280;4604;48.616;9.548;2024-02-16T06:27:33;96786.31;;;9.05;98.57
9139;BME280;4604;48.616;9.548;2024-02-16T06:30:00;96793.13;;;9.07;98.63
9139;BME280;4604;48.616;9.548;2024-02-16T06:32:27;96797.69;;;9.05;98.60
9139;BME280;4604;48.616;9.548;2024-02-16T06:34:54;96800.31;;;9.05;98.71
9139;BME280;4604;48.616;9.548;2024-02-16T06:37:21;96799.72;;;9.02;99.34
9139;BME280;4604;48.616;9.548;2024-02-16T06:39:49;96811.34;;;8.99;99.67
9139;BME280;4604;48.616;9.548;2024-02-16T06:42:15;96814.13;;;8.97;99.90
9139;BME280;4604;48.616;9.548;2024-02-16T06:44:42;96815.78;;;8.98;99.96
9139;BME280;4604;48.616;9.548;2024-02-16T06:47:09;96813.28;;;8.97;100.00
9139;BME280;4604;48.616;9.548;2024-02-16T06:49:36;96816.44;;;8.91;100.00
9139;BME280;4604;48.616;9.548;2024-02-16T06:52:04;96819.63;;;8.94;100.00
9139;BME280;4604;48.616;9.548;2024-02-16T06:54:31;96814.13;;;8.97;100.00
9139;BME280;4604;48.616;9.548;2024-02-16T06:56:59;96807.59;;;8.92;99.94
9139;BME280;4604;48.616;9.548;2024-02-16T06:59:26;96820.06;;;8.99;99.80
9139;BME280;4604;48.616;9.548;2024-02-16T07:01:53;96819.13;;;9.00;99.12
9139;BME280;4604;48.616;9.548;2024-02-16T07:04:19;96824.81;;;9.06;98.65
9139;BME280;4604;48.616;9.548;2024-02-16T07:06:46;96833.00;;;9.03;98.42
9139;BME280;4604;48.616;9.548;2024-02-16T07:09:13;96817.63;;;9.08;96.54
9139;BME280;4604;48.616;9.548;2024-02-16T07:11:40;96816.63;;;8.99;96.90
9139;BME280;4604;48.616;9.548;2024-02-16T07:14:09;96833.56;;;9.06;96.50
9139;BME280;4604;48.616;9.548;2024-02-16T07:16:35;96833.72;;;9.14;95.76
9139;BME280;4604;48.616;9.548;2024-02-16T07:19:02;96837.63;;;9.20;94.97
9139;BME280;4604;48.616;9.548;2024-02-16T07:21:33;96840.81;;;9.24;94.10
9139;BME280;4604;48.616;9.548;2024-02-16T07:23:59;96837.41;;;9.33;93.89
9139;BME280;4604;48.616;9.548;2024-02-16T07:26:26;96821.47;;;9.34;93.71
9139;BME280;4604;48.616;9.548;2024-02-16T07:28:54;96826.50;;;9.47;93.13
9139;BME280;4604;48.616;9.548;2024-02-16T07:31:22;96811.66;;;9.46;93.27
9139;BME280;4604;48.616;9.548;2024-02-16T07:33:49;96833.75;;;9.74;92.10
9139;BME280;4604;48.616;9.548;2024-02-16T07:36:16;96836.69;;;9.81;91.96
9139;BME280;4604;48.616;9.548;2024-02-16T07:38:44;96834.19;;;9.89;91.72
9139;BME280;4604;48.616;9.548;2024-02-16T07:41:11;96842.53;;;10.04;90.80
9139;BME280;4604;48.616;9.548;2024-02-16T07:43:38;96854.88;;;10.23;90.15
9139;BME280;4604;48.616;9.548;2024-02-16T07:46:04;96848.94;;;10.60;86.33
9139;BME280;4604;48.616;9.548;2024-02-16T07:48:34;96849.03;;;10.68;86.33
9139;BME280;4604;48.616;9.548;2024-02-16T07:51:01;96856.41;;;10.64;88.07
9139;BME280;4604;48.616;9.548;2024-02-16T07:53:29;96847.25;;;10.68;87.85
9139;BME280;4604;48.616;9.548;2024-02-16T07:55:56;96858.38;;;10.53;87.87
9139;BME280;4604;48.616;9.548;2024-02-16T07:58:24;96847.81;;;10.53;87.53
9139;BME280;4604;48.616;9.548;2024-02-16T08:00:50;96850.47;;;10.53;86.82
9139;BME280;4604;48.616;9.548;2024-02-16T08:03:17;96853.66;;;10.27;88.97
9139;BME280;4604;48.616;9.548;2024-02-16T08:05:46;96859.66;;;10.29;89.57
9139;BME280;4604;48.616;9.548;2024-02-16T08:08:13;96855.44;;;10.26;89.91
9139;BME280;4604;48.616;9.548;2024-02-16T08:10:39;96857.28;;;10.36;89.90
9139;BME280;4604;48.616;9.548;2024-02-16T08:13:06;96851.59;;;10.40;89.53
9139;BME280;4604;48.616;9.548;2024-02-16T08:15:33;96860.19;;;10.52;89.33
9139;BME280;4604;48.616;9.548;2024-02-16T08:18:00;96856.72;;;10.42;89.77
9139;BME280;4604;48.616;9.548;2024-02-16T08:20:28;96858.78;;;10.48;89.47
9139;BME280;4604;48.616;9.548;2024-02-16T08:22:56;96853.50;;;10.48;89.10
9139;BME280;4604;48.616;9.548;2024-02-16T08:25:24;96841.28;;;10.57;88.80
9139;BME280;4604;48.616;9.548;2024-02-16T08:27:52;96853.25;;;10.61;89.52
9139;BME280;4604;48.616;9.548;2024-02-16T08:30:19;96845.06;;;10.54;90.09
9139;BME280;4604;48.616;9.548;2024-02-16T08:32:46;96847.41;;;10.57;89.21
9139;BME280;4604;48.616;9.548;2024-02-16T08:35:13;96863.34;;;10.65;89.31
9139;BME280;4604;48.616;9.548;2024-02-16T08:37:42;96871.53;;;10.72;89.19
9139;BME280;4604;48.616;9.548;2024-02-16T08:40:12;96874.34;;;10.61;89.37
9139;BME280;4604;48.616;9.548;2024-02-16T08:42:42;96874.19;;;10.62;89.21
9139;BME280;4604;48.616;9.548;2024-02-16T08:45:10;96878.66;;;10.62;89.12
9139;BME280;4604;48.616;9.548;2024-02-16T08:47:37;96872.25;;;10.64;88.80
9139;BME280;4604;48.616;9.548;2024-02-16T08:50:06;96865.59;;;10.60;88.72
9139;BME280;4604;48.616;9.548;2024-02-16T08:52:33;96873.25;;;10.63;88.10
9139;BME280;4604;48.616;9.548;2024-02-16T08:55:01;96867.94;;;10.73;88.15
9139;BME280;4604;48.616;9.548;2024-02-16T08:57:31;96875.16;;;10.81;88.36
9139;BME280;4604;48.616;9.548;2024-02-16T08:59:59;96880.84;;;10.86;88.66
9139;BME280;4604;48.616;9.548;2024-02-16T09:02:26;96866.94;;;10.84;88.69
9139;BME280;4604;48.616;9.548;2024-02-16T09:04:52;96872.09;;;10.85;88.08
9139;BME280;4604;48.616;9.548;2024-02-16T09:07:21;96883.16;;;10.99;87.54
9139;BME280;4604;48.616;9.548;2024-02-16T09:09:51;96866.09;;;10.93;87.19
9139;BME280;4604;48.616;9.548;2024-02-16T09:12:27;96889.25;;;11.09;87.18
9139;BME280;4604;48.616;9.548;2024-02-16T09:14:57;96868.72;;;11.03;86.91
9139;BME280;4604;48.616;9.548;2024-02-16T09:17:24;96886.44;;;11.20;87.47
9139;BME280;4604;48.616;9.548;2024-02-16T09:19:51;96828.31;;;10.92;87.13
9139;BME280;4604;48.616;9.548;2024-02-16T09:22:18;96893.31;;;11.41;87.13
9139;BME280;4604;48.616;9.548;2024-02-16T09:24:47;96866.09;;;11.30;86.90
9139;BME280;4604;48.616;9.548;2024-02-16T09:27:18;96851.09;;;11.31;86.57
9139;BME280;4604;48.616;9.548;2024-02-16T09:29:47;96893.41;;;11.59;86.75
9139;BME280;4604;48.616;9.548;2024-02-16T09:32:15;96890.84;;;11.67;86.66
9139;BME280;4604;48.616;9.548;2024-02-16T09:34:41;96897.06;;;11.75;86.56
9139;BME280;4604;48.616;9.548;2024-02-16T09:37:08;96892.88;;;11.83;86.07
9139;BME280;4604;48.616;9.548;2024-02-16T09:39:37;96899.47;;;11.96;86.19
9139;BME280;4604;48.616;9.548;2024-02-16T09:42:04;96902.44;;;12.11;85.73
9139;BME280;4604;48.616;9.548;2024-02-16T09:44:32;96894.22;;;12.14;83.96
9139;BME280;4604;48.616;9.548;2024-02-16T09:47:02;96911.38;;;12.28;83.18
9139;BME280;4604;48.616;9.548;2024-02-16T09:49:31;96889.53;;;12.26;81.70
9139;BME280;4604;48.616;9.548;2024-02-16T09:52:00;96913.56;;;12.51;79.48
9139;BME280;4604;48.616;9.548;2024-02-16T09:54:30;96916.47;;;12.75;79.98
9139;BME280;4604;48.616;9.548;2024-02-16T09:56:59;96908.91;;;13.06;77.89
9139;BME280;4604;48.616;9.548;2024-02-16T09:59:26;96901.97;;;13.32;77.52
9139;BME280;4604;48.616;9.548;2024-02-16T10:01:59;96912.84;;;13.46;77.74
9139;BME280;4604;48.616;9.548;2024-02-16T10:04:26;96910.66;;;13.76;74.47
9139;BME280;4604;48.616;9.548;2024-02-16T10:06:57;96907.03;;;13.85;72.48
9139;BME280;4604;48.616;9.548;2024-02-16T10:09:24;96917.56;;;14.11;70.01
9139;BME280;4604;48.616;9.548;2024-02-16T10:11:54;96878.88;;;13.93;67.92
9139;BME280;4604;48.616;9.548;2024-02-16T10:14:22;96924.75;;;14.35;66.96
9139;BME280;4604;48.616;9.548;2024-02-16T10:17:08;96882.56;;;14.16;65.35
9139;BME280;4604;48.616;9.548;2024-02-16T10:19:35;96933.31;;;14.72;64.40
9139;BME280;4604;48.616;9.548;2024-02-16T10:22:07;96871.22;;;14.57;63.00
9139;BME280;4604;48.616;9.548;2024-02-16T10:24:34;96945.44;;;15.07;60.85
9139;BME280;4604;48.616;9.548;2024-02-16T10:27:04;96937.28;;;15.09;60.58
9139;BME280;4604;48.616;9.548;2024-02-16T10:29:35;96950.41;;;15.35;57.86
9139;BME280;4604;48.616;9.548;2024-02-16T10:32:03;96951.53;;;15.49;57.50
9139;BME280;4604;48.616;9.548;2024-02-16T10:34:31;96949.16;;;15.62;53.46
9139;BME280;4604;48.616;9.548;2024-02-16T10:37:00;96948.34;;;15.78;52.88
9139;BME280;4604;48.616;9.548;2024-02-16T10:39:30;96935.50;;;15.81;51.27
9139;BME280;4604;48.616;9.548;2024-02-16T10:42:00;96907.94;;;15.66;50.07
9139;BME280;4604;48.616;9.548;2024-02-16T10:44:31;96955.78;;;15.91;50.94
9139;BME280;4604;48.616;9.548;2024-02-16T10:46:59;96955.94;;;15.97;50.31
9139;BME280;4604;48.616;9.548;2024-02-16T10:49:26;96952.13;;;15.83;50.36
9139;BME280;4604;48.616;9.548;2024-02-16T10:51:54;96953.50;;;15.71;51.02
9139;BME280;4604;48.616;9.548;2024-02-16T10:54:25;96947.38;;;15.71;51.86
9139;BME280;4604;48.616;9.548;2024-02-16T10:56:55;96944.97;;;15.84;51.23
9139;BME280;4604;48.616;9.548;2024-02-16T10:59:22;96964.69;;;16.06;49.43
9139;BME280;4604;48.616;9.548;2024-02-16T11:01:59;96956.34;;;16.09;49.88
9139;BME280;4604;48.616;9.548;2024-02-16T11:04:39;96954.53;;;16.10;50.63
9139;BME280;4604;48.616;9.548;2024-02-16T11:07:16;96959.25;;;16.31;49.68
9139;BME280;4604;48.616;9.548;2024-02-16T11:09:43;96950.28;;;16.32;49.05
9139;BME280;4604;48.616;9.548;2024-02-16T11:12:13;96949.91;;;16.35;49.52
9139;BME280;4604;48.616;9.548;2024-02-16T11:14:43;96954.59;;;16.33;49.06
9139;BME280;4604;48.616;9.548;2024-02-16T11:17:12;96960.94;;;16.55;48.87
9139;BME280;4604;48.616;9.548;2024-02-16T11:19:41;96959.47;;;16.52;48.34
9139;BME280;4604;48.616;9.548;2024-02-16T11:22:08;96972.97;;;16.51;48.44
9139;BME280;4604;48.616;9.548;2024-02-16T11:24:37;96955.19;;;16.43;48.94
9139;BME280;4604;48.616;9.548;2024-02-16T11:27:08;96940.53;;;16.47;48.97
9139;BME280;4604;48.616;9.548;2024-02-16T11:29:37;96955.25;;;16.58;49.41
9139;BME280;4604;48.616;9.548;2024-02-16T11:32:05;96964.06;;;16.66;48.90
9139;BME280;4604;48.616;9.548;2024-02-16T11:34:33;96963.50;;;16.79;48.62
9139;BME280;4604;48.616;9.548;2024-02-16T11:37:01;96958.31;;;16.78;49.02
9139;BME280;4604;48.616;9.548;2024-02-16T11:39:29;96968.81;;;16.79;49.99
9139;BME280;4604;48.616;9.548;2024-02-16T11:42:00;96949.09;;;16.88;49.15
9139;BME280;4604;48.616;9.548;2024-02-16T11:44:29;96946.88;;;16.92;49.75
9139;BME280;4604;48.616;9.548;2024-02-16T11:46:59;96955.19;;;17.20;50.62
9139;BME280;4604;48.616;9.548;2024-02-16T11:49:28;96929.00;;;17.01;49.78
9139;BME280;4604;48.616;9.548;2024-02-16T11:51:55;96965.03;;;17.20;48.66
9139;BME280;4604;48.616;9.548;2024-02-16T11:54:22;96959.16;;;17.24;48.54
9139;BME280;4604;48.616;9.548;2024-02-16T11:56:52;96954.88;;;16.92;49.84
9139;BME280;4604;48.616;9.548;2024-02-16T11:59:19;96961.47;;;17.04;50.43
9139;BME280;4604;48.616;9.548;2024-02-16T12:01:50;96928.06;;;16.71;49.76
9139;BME280;4604;48.616;9.548;2024-02-16T12:04:26;96952.13;;;16.85;51.10
9139;BME280;4604;48.616;9.548;2024-02-16T12:06:56;96944.59;;;16.89;50.77
9139;BME280;4604;48.616;9.548;2024-02-16T12:09:23;96916.22;;;16.73;50.63
9139;BME280;4604;48.616;9.548;2024-02-16T12:11:52;96919.69;;;16.74;51.05
9139;BME280;4604;48.616;9.548;2024-02-16T12:14:21;96953.78;;;16.86;51.54
9139;BME280;4604;48.616;9.548;2024-02-16T12:16:48;96957.56;;;16.92;51.61
9139;BME280;4604;48.616;9.548;2024-02-16T12:19:18;96915.03;;;16.76;51.01
9139;BME280;4604;48.616;9.548;2024-02-16T12:21:50;96945.28;;;17.06;51.51
9139;BME280;4604;48.616;9.548;2024-02-16T12:24:22;96952.09;;;17.08;51.19
9139;BME280;4604;48.616;9.548;2024-02-16T12:26:49;96956.00;;;17.21;51.24
9139;BME280;4604;48.616;9.548;2024-02-16T12:29:17;96947.97;;;17.06;49.35
9139;BME280;4604;48.616;9.548;2024-02-16T12:31:44;96948.06;;;17.13;50.16
9139;BME280;4604;48.616;9.548;2024-02-16T12:34:13;96956.66;;;17.23;49.71
9139;BME280;4604;48.616;9.548;2024-02-16T12:36:40;96959.22;;;16.93;49.15
9139;BME280;4604;48.616;9.548;2024-02-16T12:39:09;96965.31;;;17.02;48.91
9139;BME280;4604;48.616;9.548;2024-02-16T12:41:37;96956.72;;;16.92;49.01
9139;BME280;4604;48.616;9.548;2024-02-16T12:44:06;96963.50;;;17.02;49.46
9139;BME280;4604;48.616;9.548;2024-02-16T12:46:33;96972.63;;;16.77;49.44
9139;BME280;4604;48.616;9.548;2024-02-16T12:49:00;96961.97;;;16.77;49.85
9139;BME280;4604;48.616;9.548;2024-02-16T12:51:27;96972.50;;;16.78;50.36
9139;BME280;4604;48.616;9.548;2024-02-16T12:53:54;96971.31;;;16.73;50.51
9139;BME280;4604;48.616;9.548;2024-02-16T12:56:22;96971.97;;;16.75;50.61
9139;BME280;4604;48.616;9.548;2024-02-16T12:58:49;96967.09;;;16.86;50.40
9139;BME280;4604;48.616;9.548;2024-02-16T13:01:16;96953.84;;;16.70;50.45
9139;BME280;4604;48.616;9.548;2024-02-16T13:03:44;96973.16;;;16.72;50.86
9139;BME280;4604;48.616;9.548;2024-02-16T13:06:10;96967.66;;;16.74;51.42
9139;BME280;4604;48.616;9.548;2024-02-16T13:08:38;96971.97;;;16.75;51.56
9139;BME280;4604;48.616;9.548;2024-02-16T13:11:05;96967.59;;;16.59;51.80
9139;BME280;4604;48.616;9.548;2024-02-16T13:13:33;96972.28;;;16.57;51.75
9139;BME280;4604;48.616;9.548;2024-02-16T13:16:00;96971.38;;;16.64;52.23
9139;BME280;4604;48.616;9.548;2024-02-16T13:18:27;96979.75;;;16.61;52.00
9139;BME280;4604;48.616;9.548;2024-02-16T13:20:54;96969.31;;;16.52;52.56
9139;BME280;4604;48.616;9.548;2024-02-16T13:23:22;96971.88;;;16.68;52.72
9139;BME280;4604;48.616;9.548;2024-02-16T13:25:49;96971.00;;;16.44;53.02
9139;BME280;4604;48.616;9.548;2024-02-16T13:28:16;96968.00;;;16.47;53.65
9139;BME280;4604;48.616;9.548;2024-02-16T13:30:44;96970.19;;;16.44;53.78